Killington, VT

9:47 PM EDT on July 23, 2016 (GMT -0400)
Robin Wood | | Change Station

Elev 2051 ft 43.67 °N, 72.84 °W | Updated 22 minutes ago

Clear
Clear
57.2 °F
Feels Like 57.2 °F
N
0.0
Wind Variable Wind from SW

Today
High -- | Low -- °F
--% Chance of Precip.
Yesterday
High -- | Low -- °F
Precip. -- in
Pressure 29.95 in
Visibility 10.0 miles
Clouds Clear
Dew Point 55 °F
Humidity 91%
Rainfall 0.05 in
Snow Depth Not available.
5:31 AM 8:23 PM
Waning Gibbous, 81% visible
METAR KRUT 240056Z AUTO 32003KT 10SM CLR 17/16 A2992 RMK AO2 SLP142 T01670156 $
Pressure 29.95 in
Visibility 10.0 miles
Clouds Clear
Dew Point 55 °F
Humidity 91%
Rainfall 0.05 in
Snow Depth Not available.
5:31 AM 8:23 PM
Waning Gibbous, 81% visible
METAR KRUT 240056Z AUTO 32003KT 10SM CLR 17/16 A2992 RMK AO2 SLP142 T01670156 $

10-Day Weather Forecast

Almanac

Astronomy

Jul. 23, 2016 Rise Set
Actual Time
Civil Twilight
Nautical Twilight
Astronomical Twilight
Moon
Length of Visible Light
Length of Day
Tomorrow will be .
, % of the Moon is Illuminated

Today's Extremes

State Highs State Lows

Community

WunderPhotos

Upload Photos

1,926,996 photos uploaded!

WunderBlog® & News

Nearby

Air Quality

  Air Quality AQ Index Pollutant
Not available.

Snow Depth

Station Depth Elevation

Earthquake Activity

City Distance Mag. Time & Date
Minimum magnitude displayed is 2.5.

Coastal Water Temperatures

Place Temperature

Stations

Nearby Weather Stations

Station Location Temp. Windchill Dew Point Humidity Wind Precip. Elev Updated Type
                   

Watches & Warnings

There are currently no watches in effect.